createdAt,value
2018-07-01T00:00:27.448Z,57.04
2018-07-01T00:01:27.454Z,56.46
2018-07-01T00:02:27.448Z,56.94
2018-07-01T00:03:27.453Z,57.13
2018-07-01T00:04:27.448Z,57.04
2018-07-01T00:05:27.448Z,56.65
2018-07-01T00:06:27.448Z,56.46
2018-07-01T00:07:27.447Z,57.13
2018-07-01T00:08:27.451Z,57.23
2018-07-01T00:09:27.486Z,57.70
2018-07-01T00:10:27.451Z,57.32
2018-07-01T00:11:27.460Z,57.70
2018-07-01T00:12:27.453Z,57.42
2018-07-01T00:13:27.450Z,57.61
2018-07-01T00:14:27.457Z,57.70
2018-07-01T00:15:27.447Z,57.70
2018-07-01T00:16:27.455Z,57.51
2018-07-01T00:17:27.449Z,57.32
2018-07-01T00:18:27.461Z,57.48
2018-07-01T00:19:27.449Z,58.18
2018-07-01T00:20:27.450Z,57.99
2018-07-01T00:21:27.449Z,58.47
2018-07-01T00:22:27.456Z,58.28
2018-07-01T00:23:27.472Z,58.47
2018-07-01T00:24:27.452Z,57.42
2018-07-01T00:25:27.448Z,57.80
2018-07-01T00:26:27.449Z,57.32
2018-07-01T00:27:27.482Z,57.13
2018-07-01T00:28:27.449Z,57.51
2018-07-01T00:29:27.500Z,57.87
2018-07-01T00:30:27.449Z,57.51
2018-07-01T00:31:27.449Z,58.09
2018-07-01T00:32:27.483Z,58.15
2018-07-01T00:33:27.453Z,58.44
2018-07-01T00:34:27.448Z,58.44
2018-07-01T00:35:27.449Z,58.44
2018-07-01T00:36:27.483Z,58.73
2018-07-01T00:37:27.451Z,58.73
2018-07-01T00:38:27.451Z,58.54
2018-07-01T00:39:27.451Z,58.63
2018-07-01T00:40:27.450Z,58.63
2018-07-01T00:41:27.449Z,58.63
2018-07-01T00:42:27.447Z,58.44
2018-07-01T00:43:27.462Z,58.63
2018-07-01T00:44:27.449Z,59.49
2018-07-01T00:45:27.448Z,59.20
2018-07-01T00:46:27.448Z,59.30
2018-07-01T00:47:27.451Z,59.11
2018-07-01T00:48:27.473Z,59.49
2018-07-01T00:49:27.446Z,59.69
2018-07-01T00:50:27.446Z,59.49
2018-07-01T00:51:27.457Z,59.20
2018-07-01T00:52:27.463Z,60.64
2018-07-01T00:53:27.469Z,60.64
2018-07-01T00:54:27.451Z,60.45
2018-07-01T00:55:27.445Z,60.64
2018-07-01T00:56:27.453Z,60.16
2018-07-01T00:57:27.449Z,60.45
2018-07-01T00:58:27.443Z,59.56
2018-07-01T00:59:27.443Z,60.45
2018-07-01T01:00:27.450Z,60.45
2018-07-01T01:01:27.456Z,60.33
2018-07-01T01:02:27.452Z,60.13
2018-07-01T01:03:27.444Z,60.35
2018-07-01T01:04:27.442Z,60.23
2018-07-01T01:05:27.442Z,60.04
2018-07-01T01:06:27.460Z,60.23
2018-07-01T01:07:27.442Z,59.88
2018-07-01T01:08:27.464Z,60.52
2018-07-01T01:09:27.441Z,60.52
2018-07-01T01:10:27.445Z,60.33
2018-07-01T01:11:27.439Z,60.13
2018-07-01T01:12:27.475Z,60.42
2018-07-01T01:13:27.438Z,60.52
2018-07-01T01:14:27.440Z,60.52
2018-07-01T01:15:27.437Z,60.52
2018-07-01T01:16:27.440Z,60.61
2018-07-01T01:17:27.516Z,60.71
2018-07-01T01:18:27.437Z,60.90
2018-07-01T01:19:27.434Z,61.38
2018-07-01T01:20:27.438Z,60.52
2018-07-01T01:21:27.434Z,60.80
2018-07-01T01:22:27.435Z,61.09
2018-07-01T01:23:27.433Z,60.99
2018-07-01T01:24:27.435Z,61.38
2018-07-01T01:25:27.433Z,61.47
2018-07-01T01:26:27.432Z,61.28
2018-07-01T01:27:27.436Z,60.99
2018-07-01T01:28:27.430Z,61.09
2018-07-01T01:29:27.432Z,60.90
2018-07-01T01:30:27.430Z,61.19
2018-07-01T01:31:27.429Z,61.38
2018-07-01T01:32:27.430Z,61.47
2018-07-01T01:33:27.428Z,61.57
2018-07-01T01:34:27.426Z,62.24
2018-07-01T01:35:27.432Z,61.85
2018-07-01T01:36:27.425Z,61.38
2018-07-01T01:37:27.549Z,61.95
2018-07-01T01:38:27.424Z,61.38
2018-07-01T01:39:27.423Z,61.47
2018-07-01T01:40:27.422Z,62.14
2018-07-01T01:41:27.423Z,61.19
2018-07-01T01:42:27.436Z,61.47
2018-07-01T01:43:27.424Z,61.57
2018-07-01T01:44:27.449Z,61.47
2018-07-01T01:45:28.713Z,61.19
2018-07-01T01:46:27.418Z,61.85
2018-07-01T01:47:27.421Z,62.04
2018-07-01T01:48:27.417Z,62.33
2018-07-01T01:49:27.424Z,62.71
2018-07-01T01:50:27.416Z,62.52
2018-07-01T01:51:27.421Z,62.71
2018-07-01T01:52:27.452Z,62.62
2018-07-01T01:53:27.414Z,62.30
2018-07-01T01:54:27.419Z,62.49
2018-07-01T01:55:27.423Z,62.40
2018-07-01T01:56:27.414Z,62.49
2018-07-01T01:57:27.412Z,62.49
2018-07-01T01:58:27.412Z,62.49
2018-07-01T01:59:27.410Z,62.49
2018-07-01T02:00:27.411Z,62.87
2018-07-01T02:01:27.408Z,63.35
2018-07-01T02:02:27.407Z,63.35
2018-07-01T02:03:27.405Z,63.26
2018-07-01T02:04:27.406Z,63.26
2018-07-01T02:05:27.406Z,63.64
2018-07-01T02:06:27.406Z,63.83
2018-07-01T02:07:27.407Z,63.45
2018-07-01T02:08:27.404Z,63.26
2018-07-01T02:09:27.401Z,63.45
2018-07-01T02:10:27.400Z,63.35
2018-07-01T02:11:27.398Z,63.64
2018-07-01T02:12:27.398Z,63.35
2018-07-01T02:13:27.396Z,63.26
2018-07-01T02:14:27.395Z,63.35
2018-07-01T02:15:27.395Z,63.83
2018-07-01T02:16:27.394Z,64.02
2018-07-01T02:17:27.399Z,63.83
2018-07-01T02:18:27.392Z,64.12
2018-07-01T02:19:27.397Z,63.73
2018-07-01T02:20:27.391Z,64.22
2018-07-01T02:21:27.391Z,63.64
2018-07-01T02:22:27.387Z,64.02
2018-07-01T02:23:27.388Z,63.83
2018-07-01T02:24:27.387Z,63.70
2018-07-01T02:25:27.411Z,64.09
2018-07-01T02:26:27.390Z,64.31
2018-07-01T02:27:27.386Z,63.93
2018-07-01T02:28:27.386Z,63.99
2018-07-01T02:29:27.383Z,64.22
2018-07-01T02:30:27.381Z,64.56
2018-07-01T02:31:27.378Z,64.31
2018-07-01T02:32:27.379Z,64.02
2018-07-01T02:33:27.387Z,64.31
2018-07-01T02:34:27.376Z,64.37
2018-07-01T02:35:27.458Z,64.18
2018-07-01T02:36:27.377Z,64.28
2018-07-01T02:37:27.373Z,64.37
2018-07-01T02:38:27.371Z,64.59
2018-07-01T02:39:27.369Z,64.31
2018-07-01T02:40:27.379Z,64.22
2018-07-01T02:41:27.368Z,64.31
2018-07-01T02:42:27.368Z,64.22
2018-07-01T02:43:27.365Z,64.31
2018-07-01T02:44:27.365Z,64.47
2018-07-01T02:45:27.363Z,64.65
2018-07-01T02:46:27.361Z,64.56
2018-07-01T02:47:27.361Z,64.37
2018-07-01T02:48:27.360Z,64.09
2018-07-01T02:49:27.359Z,64.18
2018-07-01T02:50:27.359Z,64.09
2018-07-01T02:51:27.360Z,64.18
2018-07-01T02:52:27.356Z,64.47
2018-07-01T02:53:27.354Z,64.28
2018-07-01T02:54:27.352Z,64.75
2018-07-01T02:55:27.356Z,64.37
2018-07-01T02:56:27.352Z,64.37
2018-07-01T02:57:27.352Z,64.09
2018-07-01T02:58:27.346Z,64.28
2018-07-01T02:59:27.350Z,64.09
2018-07-01T03:00:27.401Z,64.28
2018-07-01T03:01:27.344Z,64.37
2018-07-01T03:02:27.342Z,64.37
2018-07-01T03:03:27.340Z,64.47
2018-07-01T03:04:27.341Z,65.14
2018-07-01T03:05:27.346Z,65.23
2018-07-01T03:06:27.345Z,64.94
2018-07-01T03:07:27.336Z,64.56
2018-07-01T03:08:27.338Z,64.56
2018-07-01T03:09:27.342Z,65.23
2018-07-01T03:10:27.331Z,64.94
2018-07-01T03:11:27.331Z,64.65
2018-07-01T03:12:27.329Z,64.65
2018-07-01T03:13:27.335Z,64.85
2018-07-01T03:14:27.329Z,65.33
2018-07-01T03:15:27.325Z,65.01
2018-07-01T03:16:27.332Z,65.20
2018-07-01T03:17:27.324Z,65.23
2018-07-01T03:18:42.118Z,65.23
2018-07-01T03:19:27.320Z,65.48
2018-07-01T03:20:27.318Z,65.52
2018-07-01T03:21:27.317Z,65.01
2018-07-01T03:22:27.316Z,65.20
2018-07-01T03:23:27.313Z,65.39
2018-07-01T03:24:27.312Z,65.77
2018-07-01T03:25:27.314Z,65.77
2018-07-01T03:26:27.310Z,65.96
2018-07-01T03:27:27.310Z,65.67
2018-07-01T03:28:27.305Z,66.44
2018-07-01T03:29:27.306Z,65.87
2018-07-01T03:30:27.307Z,65.87
2018-07-01T03:31:27.301Z,66.25
2018-07-01T03:32:27.301Z,65.96
2018-07-01T03:33:27.298Z,65.96
2018-07-01T03:34:27.297Z,65.96
2018-07-01T03:35:27.295Z,65.77
2018-07-01T03:36:27.294Z,65.96
2018-07-01T03:37:27.293Z,66.15
2018-07-01T03:38:27.290Z,65.77
2018-07-01T03:39:27.289Z,66.06
2018-07-01T03:40:27.287Z,66.63
2018-07-01T03:41:27.291Z,66.82
2018-07-01T03:42:27.286Z,66.92
2018-07-01T03:43:27.284Z,66.63
2018-07-01T03:44:27.282Z,66.06
2018-07-01T03:45:27.279Z,66.15
2018-07-01T03:46:27.278Z,65.96
2018-07-01T03:47:27.278Z,65.87
2018-07-01T03:48:27.274Z,65.90
2018-07-01T03:49:27.277Z,65.87
2018-07-01T03:50:27.271Z,65.90
2018-07-01T03:51:27.270Z,65.90
2018-07-01T03:52:27.288Z,65.61
2018-07-01T03:53:27.596Z,65.42
2018-07-01T03:54:27.267Z,65.33
2018-07-01T03:55:27.264Z,65.61
2018-07-01T03:56:27.279Z,65.61
2018-07-01T03:57:27.261Z,65.14
2018-07-01T03:58:27.260Z,64.85
2018-07-01T03:59:27.314Z,65.33
2018-07-01T04:00:27.315Z,64.65
2018-07-01T04:01:27.257Z,64.65
2018-07-01T04:02:27.256Z,64.65
2018-07-01T04:03:27.252Z,65.14
2018-07-01T04:04:27.252Z,64.85
2018-07-01T04:05:27.251Z,64.94
2018-07-01T04:06:27.250Z,65.23
2018-07-01T04:07:27.247Z,64.75
2018-07-01T04:08:27.249Z,64.47
2018-07-01T04:09:27.248Z,64.50
2018-07-01T04:10:27.244Z,64.56
2018-07-01T04:11:27.242Z,64.47
2018-07-01T04:12:27.244Z,64.28
2018-07-01T04:13:27.241Z,64.40
2018-07-01T04:14:27.239Z,64.50
2018-07-01T04:15:27.241Z,64.47
2018-07-01T04:16:27.243Z,64.37
2018-07-01T04:17:27.235Z,64.31
2018-07-01T04:18:27.236Z,64.22
2018-07-01T04:19:27.231Z,64.59
2018-07-01T04:20:27.232Z,64.59
2018-07-01T04:21:27.231Z,65.17
2018-07-01T04:22:27.229Z,64.78
2018-07-01T04:23:27.229Z,64.69
2018-07-01T04:24:27.226Z,64.50
2018-07-01T04:25:27.228Z,64.78
2018-07-01T04:26:27.228Z,64.59
2018-07-01T04:27:27.224Z,64.12
2018-07-01T04:28:27.222Z,64.31
2018-07-01T04:29:27.221Z,64.12
2018-07-01T04:30:27.244Z,63.93
2018-07-01T04:31:27.219Z,63.93
2018-07-01T04:32:27.218Z,63.48
2018-07-01T04:33:27.221Z,63.39
2018-07-01T04:34:27.215Z,63.29
2018-07-01T04:35:27.216Z,63.29
2018-07-01T04:36:27.215Z,63.39
2018-07-01T04:37:27.214Z,63.67
2018-07-01T04:38:27.220Z,64.72
2018-07-01T04:39:27.222Z,65.30
2018-07-01T04:40:27.211Z,65.68
2018-07-01T04:41:27.212Z,64.72
2018-07-01T04:42:27.208Z,65.11
2018-07-01T04:43:27.208Z,65.30
2018-07-01T04:44:27.207Z,65.39
2018-07-01T04:45:27.207Z,64.53
2018-07-01T04:46:27.210Z,63.86
2018-07-01T04:47:27.205Z,63.86
2018-07-01T04:48:27.208Z,62.81
2018-07-01T04:49:27.203Z,63.48
2018-07-01T04:50:27.202Z,63.48
2018-07-01T04:51:27.202Z,62.71
2018-07-01T04:52:27.208Z,62.52
2018-07-01T04:53:27.199Z,62.43
2018-07-01T04:54:27.198Z,62.43
2018-07-01T04:55:27.297Z,62.37
2018-07-01T04:56:27.198Z,62.46
2018-07-01T04:57:27.196Z,62.08
2018-07-01T04:58:27.196Z,61.41
2018-07-01T04:59:27.194Z,61.41
2018-07-01T05:00:27.194Z,61.22
2018-07-01T05:01:27.192Z,61.22
2018-07-01T05:02:27.240Z,60.93
2018-07-01T05:03:27.191Z,61.12
2018-07-01T05:04:27.189Z,61.79
2018-07-01T05:05:27.193Z,60.55
2018-07-01T05:06:27.188Z,60.55
2018-07-01T05:07:27.186Z,60.55
2018-07-01T05:08:27.187Z,60.45
2018-07-01T05:09:27.190Z,60.35
2018-07-01T05:10:27.187Z,60.55
2018-07-01T05:11:27.183Z,60.48
2018-07-01T05:12:27.183Z,58.69
2018-07-01T05:13:27.183Z,57.48
2018-07-01T05:14:27.180Z,55.49
2018-07-01T05:15:27.180Z,55.21
2018-07-01T05:16:27.181Z,55.21
2018-07-01T05:17:27.180Z,54.75
2018-07-01T05:18:27.180Z,54.01
2018-07-01T05:19:27.181Z,53.63
2018-07-01T05:20:27.179Z,52.95
2018-07-01T05:21:27.180Z,52.31
2018-07-01T05:22:27.181Z,51.64
2018-07-01T05:23:27.185Z,51.71
2018-07-01T05:24:27.181Z,52.55
2018-07-01T05:25:27.183Z,53.22
2018-07-01T05:26:27.183Z,53.03
2018-07-01T05:27:27.185Z,52.38
2018-07-01T05:28:27.198Z,51.83
2018-07-01T05:29:27.189Z,50.78
2018-07-01T05:30:27.186Z,50.49
2018-07-01T05:31:27.189Z,50.49
2018-07-01T05:32:27.193Z,50.78
2018-07-01T05:33:27.192Z,50.56
2018-07-01T05:34:27.190Z,50.68
2018-07-01T05:35:27.192Z,49.77
2018-07-01T05:36:27.194Z,49.00
2018-07-01T05:37:27.201Z,48.88
2018-07-01T05:38:27.207Z,49.55
2018-07-01T05:39:27.198Z,49.65
2018-07-01T05:40:27.203Z,49.46
2018-07-01T05:41:27.206Z,50.01
2018-07-01T05:42:27.203Z,50.65
2018-07-01T05:43:27.206Z,52.48
2018-07-01T05:44:27.208Z,53.31
2018-07-01T05:45:27.211Z,53.31
2018-07-01T05:46:27.211Z,53.50
2018-07-01T05:47:27.215Z,54.17
2018-07-01T05:48:27.216Z,53.79
2018-07-01T05:49:27.254Z,54.46
2018-07-01T05:50:27.217Z,53.70
2018-07-01T05:51:27.220Z,53.89
2018-07-01T05:52:27.220Z,53.50
2018-07-01T05:53:27.229Z,53.70
2018-07-01T05:54:27.222Z,53.15
2018-07-01T05:55:27.224Z,52.57
2018-07-01T05:56:27.228Z,50.84
2018-07-01T05:57:27.228Z,50.01
2018-07-01T05:58:27.240Z,50.39
2018-07-01T05:59:27.230Z,49.72
2018-07-01T06:00:27.233Z,50.29
2018-07-01T06:01:27.233Z,50.08
2018-07-01T06:02:27.233Z,50.17
2018-07-01T06:03:27.236Z,50.17
2018-07-01T06:04:27.238Z,49.72
2018-07-01T06:05:27.244Z,49.52
2018-07-01T06:06:27.239Z,49.62
2018-07-01T06:07:27.250Z,49.33
2018-07-01T06:08:27.243Z,49.31
2018-07-01T06:09:27.266Z,50.46
2018-07-01T06:10:27.245Z,50.73
2018-07-01T06:11:27.246Z,50.82
2018-07-01T06:12:27.251Z,51.40
2018-07-01T06:13:27.249Z,51.51
2018-07-01T06:14:27.253Z,50.56
2018-07-01T06:15:27.255Z,50.10
2018-07-01T06:16:27.273Z,49.07
2018-07-01T06:17:27.255Z,48.02
2018-07-01T06:18:27.255Z,48.04
2018-07-01T06:19:27.257Z,47.27
2018-07-01T06:20:27.259Z,47.44
2018-07-01T06:21:27.260Z,48.02
2018-07-01T06:22:27.262Z,48.66
2018-07-01T06:23:27.262Z,49.15
2018-07-01T06:24:27.311Z,49.52
2018-07-01T06:25:27.271Z,49.43
2018-07-01T06:26:27.270Z,49.82
2018-07-01T06:27:27.276Z,49.62
2018-07-01T06:28:27.272Z,49.91
2018-07-01T06:29:27.278Z,50.39
2018-07-01T06:30:27.274Z,50.46
2018-07-01T06:31:27.276Z,50.46
2018-07-01T06:32:27.280Z,50.65
2018-07-01T06:33:27.282Z,50.46
2018-07-01T06:34:27.282Z,50.17
2018-07-01T06:35:27.286Z,50.46
2018-07-01T06:36:27.288Z,50.56
2018-07-01T06:37:27.285Z,50.65
2018-07-01T06:38:27.287Z,51.51
2018-07-01T06:39:27.287Z,51.81
2018-07-01T06:40:27.290Z,51.61
2018-07-01T06:41:27.291Z,51.61
2018-07-01T06:42:27.292Z,51.81
2018-07-01T06:43:27.294Z,51.32
2018-07-01T06:44:27.307Z,50.84
2018-07-01T06:45:27.297Z,50.75
2018-07-01T06:46:27.298Z,50.84
2018-07-01T06:47:27.298Z,50.75
2018-07-01T06:48:27.301Z,50.75
2018-07-01T06:49:27.316Z,50.56
2018-07-01T06:50:27.302Z,50.84
2018-07-01T06:51:27.302Z,50.65
2018-07-01T06:52:27.310Z,51.23
2018-07-01T06:53:27.310Z,51.61
2018-07-01T06:54:27.307Z,51.14
2018-07-01T06:55:27.312Z,51.14
2018-07-01T06:56:27.364Z,50.29
2018-07-01T06:57:27.311Z,50.27
2018-07-01T06:58:27.316Z,50.37
2018-07-01T06:59:27.313Z,50.27
2018-07-01T07:00:27.314Z,50.08
2018-07-01T07:01:27.318Z,50.78
2018-07-01T07:02:27.390Z,50.37
2018-07-01T07:03:27.320Z,50.27
2018-07-01T07:04:27.318Z,50.17
2018-07-01T07:05:27.324Z,50.75
2018-07-01T07:06:27.322Z,50.56
2018-07-01T07:07:27.321Z,51.51
2018-07-01T07:08:27.323Z,51.32
2018-07-01T07:09:27.324Z,50.94
2018-07-01T07:10:27.326Z,51.42
2018-07-01T07:11:27.325Z,51.32
2018-07-01T07:12:27.361Z,51.51
2018-07-01T07:13:27.330Z,51.61
2018-07-01T07:14:27.328Z,51.42
2018-07-01T07:15:27.334Z,50.84
2018-07-01T07:16:27.331Z,50.94
2018-07-01T07:17:27.332Z,50.84
2018-07-01T07:18:27.332Z,50.46
2018-07-01T07:19:27.334Z,50.17
2018-07-01T07:20:27.335Z,50.37
2018-07-01T07:21:27.337Z,49.98
2018-07-01T07:22:27.341Z,50.17
2018-07-01T07:23:27.337Z,50.37
2018-07-01T07:24:27.399Z,50.75
2018-07-01T07:25:27.340Z,50.94
2018-07-01T07:26:27.340Z,51.61
2018-07-01T07:27:27.343Z,51.59
2018-07-01T07:28:27.343Z,51.61
2018-07-01T07:29:27.342Z,50.84
2018-07-01T07:30:27.346Z,50.84
2018-07-01T07:31:27.345Z,50.63
2018-07-01T07:32:27.344Z,50.82
2018-07-01T07:33:27.349Z,50.94
2018-07-01T07:34:27.345Z,50.46
2018-07-01T07:35:27.347Z,50.56
2018-07-01T07:36:27.348Z,50.43
2018-07-01T07:37:27.347Z,50.17
2018-07-01T07:38:27.349Z,50.46
2018-07-01T07:39:27.348Z,50.56
2018-07-01T07:40:27.356Z,49.69
2018-07-01T07:41:27.350Z,49.60
2018-07-01T07:42:27.351Z,49.60
2018-07-01T07:43:27.354Z,49.69
2018-07-01T07:44:27.356Z,48.74
2018-07-01T07:45:27.356Z,48.85
2018-07-01T07:46:27.351Z,48.57
2018-07-01T07:47:27.356Z,48.47
2018-07-01T07:48:27.356Z,47.99
2018-07-01T07:49:27.356Z,47.89
2018-07-01T07:50:27.355Z,47.80
2018-07-01T07:51:27.356Z,47.71
2018-07-01T07:52:27.357Z,47.89
2018-07-01T07:53:27.357Z,47.32
2018-07-01T07:54:27.357Z,47.71
2018-07-01T07:55:27.364Z,47.13
2018-07-01T07:56:27.359Z,47.13
2018-07-01T07:57:27.361Z,46.94
2018-07-01T07:58:27.361Z,46.74
2018-07-01T07:59:27.366Z,46.84
2018-07-01T08:00:27.380Z,46.55
2018-07-01T08:01:27.364Z,46.45
2018-07-01T08:02:27.386Z,45.98
2018-07-01T08:03:27.367Z,46.55
2018-07-01T08:04:27.368Z,46.94
2018-07-01T08:05:27.369Z,46.65
2018-07-01T08:06:27.369Z,46.84
2018-07-01T08:07:27.431Z,45.98
2018-07-01T08:08:27.369Z,45.59
2018-07-01T08:09:27.371Z,45.50
2018-07-01T08:10:27.375Z,45.30
2018-07-01T08:11:27.371Z,45.59
2018-07-01T08:12:27.376Z,45.50
2018-07-01T08:13:27.377Z,45.59
2018-07-01T08:14:27.381Z,45.59
2018-07-01T08:15:27.380Z,45.32
2018-07-01T08:16:27.377Z,45.14
2018-07-01T08:17:27.379Z,45.32
2018-07-01T08:18:27.378Z,43.50
2018-07-01T08:19:27.380Z,42.93
2018-07-01T08:20:27.380Z,42.83
2018-07-01T08:21:27.383Z,43.02
2018-07-01T08:22:27.382Z,42.54
2018-07-01T08:23:27.386Z,42.44
2018-07-01T08:24:27.385Z,42.35
2018-07-01T08:25:27.386Z,42.06
2018-07-01T08:26:27.388Z,42.93
2018-07-01T08:27:27.398Z,43.31
2018-07-01T08:28:27.388Z,43.21
2018-07-01T08:29:27.443Z,43.21
2018-07-01T08:30:27.392Z,43.50
2018-07-01T08:31:27.395Z,43.70
2018-07-01T08:32:27.394Z,43.71
2018-07-01T08:33:27.396Z,43.52
2018-07-01T08:34:27.449Z,41.74
2018-07-01T08:35:27.397Z,39.74
2018-07-01T08:36:27.397Z,38.53
2018-07-01T08:37:27.401Z,36.21
2018-07-01T08:38:27.404Z,35.56
2018-07-01T08:39:27.406Z,35.48
2018-07-01T08:40:27.408Z,34.63
2018-07-01T08:41:27.408Z,33.39
2018-07-01T08:42:27.414Z,32.54
2018-07-01T08:43:27.412Z,32.17
2018-07-01T08:44:27.416Z,31.88
2018-07-01T08:45:27.419Z,30.83
2018-07-01T08:46:27.425Z,30.38
2018-07-01T08:47:27.427Z,29.23
2018-07-01T08:48:27.431Z,28.09
2018-07-01T08:49:27.437Z,26.85
2018-07-01T08:50:27.438Z,26.18
2018-07-01T08:51:27.442Z,25.03
2018-07-01T08:52:27.469Z,24.17
2018-07-01T08:53:27.454Z,24.84
2018-07-01T08:54:27.458Z,25.21
2018-07-01T08:55:27.466Z,25.13
2018-07-01T08:56:27.473Z,25.02
2018-07-01T08:57:27.483Z,25.21
2018-07-01T08:58:27.479Z,24.73
2018-07-01T08:59:27.485Z,23.79
2018-07-01T09:00:27.491Z,23.59
2018-07-01T09:01:27.496Z,22.83
2018-07-01T09:02:27.502Z,22.45
2018-07-01T09:03:27.508Z,21.58
2018-07-01T09:04:27.516Z,20.91
2018-07-01T09:05:27.522Z,21.11
2018-07-01T09:06:27.528Z,21.02
2018-07-01T09:07:27.534Z,20.91
2018-07-01T09:08:27.590Z,21.29
2018-07-01T09:09:27.566Z,20.80
2018-07-01T09:10:27.554Z,20.91
2018-07-01T09:11:27.562Z,20.54
2018-07-01T09:12:27.581Z,20.07
2018-07-01T09:13:27.580Z,19.29
2018-07-01T09:14:27.603Z,19.11
2018-07-01T09:15:27.594Z,18.82
2018-07-01T09:16:27.599Z,19.38
2018-07-01T09:17:27.606Z,20.52
2018-07-01T09:18:27.613Z,21.00
2018-07-01T09:19:27.627Z,21.58
2018-07-01T09:20:27.630Z,20.72
2018-07-01T09:21:27.636Z,20.83
2018-07-01T09:22:27.647Z,20.16
2018-07-01T09:23:27.689Z,19.59
2018-07-01T09:24:27.669Z,19.19
2018-07-01T09:25:27.669Z,19.17
2018-07-01T09:26:27.681Z,20.42
2018-07-01T09:27:27.685Z,20.90
2018-07-01T09:28:27.692Z,20.90
2018-07-01T09:29:27.700Z,21.08
2018-07-01T09:30:27.710Z,21.08
2018-07-01T09:31:27.716Z,20.98
2018-07-01T09:32:27.724Z,20.90
2018-07-01T09:33:27.736Z,20.14
2018-07-01T09:34:27.794Z,19.96
2018-07-01T09:35:27.748Z,19.38
2018-07-01T09:36:27.756Z,18.54
2018-07-01T09:37:27.769Z,17.18
2018-07-01T09:38:27.774Z,17.37
2018-07-01T09:39:27.781Z,17.55
2018-07-01T09:40:27.790Z,17.07
2018-07-01T09:41:27.799Z,17.27
2018-07-01T09:42:27.808Z,16.41
2018-07-01T09:43:27.845Z,16.02
2018-07-01T09:44:27.828Z,15.73
2018-07-01T09:45:27.834Z,15.25
2018-07-01T09:46:27.845Z,15.34
2018-07-01T09:47:27.856Z,15.24
2018-07-01T09:48:27.868Z,15.44
2018-07-01T09:49:27.871Z,15.24
2018-07-01T09:50:27.970Z,15.34
2018-07-01T09:51:27.892Z,15.25
2018-07-01T09:52:27.899Z,14.76
2018-07-01T09:53:27.910Z,14.38
2018-07-01T09:54:27.918Z,14.09
2018-07-01T09:55:27.930Z,14.78
2018-07-01T09:56:27.938Z,14.10
2018-07-01T09:57:27.948Z,13.91
2018-07-01T09:58:27.957Z,12.95
2018-07-01T09:59:27.968Z,12.56
2018-07-01T10:00:27.978Z,12.67
2018-07-01T10:01:27.990Z,12.17
2018-07-01T10:02:28.004Z,12.55
2018-07-01T10:03:28.013Z,13.12
2018-07-01T10:04:28.020Z,13.60
2018-07-01T10:05:28.031Z,13.99
2018-07-01T10:06:28.040Z,14.37
2018-07-01T10:07:28.051Z,14.47
2018-07-01T10:08:28.062Z,14.26
2018-07-01T10:09:28.072Z,14.25
2018-07-01T10:10:28.084Z,14.45
2018-07-01T10:11:28.092Z,14.55
2018-07-01T10:12:28.107Z,14.36
2018-07-01T10:13:28.114Z,14.34
2018-07-01T10:14:28.146Z,14.34
2018-07-01T10:15:28.133Z,13.87
2018-07-01T10:16:28.152Z,14.16
2018-07-01T10:17:28.157Z,13.87
2018-07-01T10:18:28.176Z,14.36
2018-07-01T10:19:28.177Z,13.97
2018-07-01T10:20:28.185Z,13.87
2018-07-01T10:21:28.205Z,14.36
2018-07-01T10:22:28.204Z,13.78
2018-07-01T10:23:28.215Z,13.31
2018-07-01T10:24:28.225Z,12.15
2018-07-01T10:25:28.236Z,11.57
2018-07-01T10:26:28.328Z,11.87
2018-07-01T10:27:28.259Z,11.08
2018-07-01T10:28:28.269Z,10.21
2018-07-01T10:29:28.278Z,9.53
2018-07-01T10:30:28.291Z,8.94
2018-07-01T10:31:28.304Z,9.61
2018-07-01T10:32:28.353Z,9.91
2018-07-01T10:33:28.325Z,10.29
2018-07-01T10:34:28.335Z,10.28
2018-07-01T10:35:28.727Z,11.07
2018-07-01T10:36:28.362Z,10.38
2018-07-01T10:37:28.371Z,11.36
2018-07-01T10:38:28.389Z,10.88
2018-07-01T10:39:28.392Z,10.30
2018-07-01T10:40:28.411Z,10.20
2018-07-01T10:41:28.418Z,10.09
2018-07-01T10:42:28.430Z,10.19
2018-07-01T10:43:28.438Z,10.77
2018-07-01T10:44:28.451Z,11.07
2018-07-01T10:45:28.463Z,10.97
2018-07-01T10:46:28.474Z,10.68
2018-07-01T10:47:28.486Z,10.68
2018-07-01T10:48:28.500Z,9.62
2018-07-01T10:49:28.509Z,9.91
2018-07-01T10:50:28.521Z,9.91
2018-07-01T10:51:28.666Z,9.89
2018-07-01T10:52:28.550Z,11.05
2018-07-01T10:53:28.563Z,11.44
2018-07-01T10:54:28.571Z,11.35
2018-07-01T10:55:28.578Z,11.07
2018-07-01T10:56:28.594Z,10.58
2018-07-01T10:57:28.614Z,10.30
2018-07-01T10:58:28.616Z,9.81
2018-07-01T10:59:28.628Z,9.43
2018-07-01T11:00:28.637Z,9.14
2018-07-01T11:01:28.651Z,8.74
2018-07-01T11:02:28.663Z,9.60
2018-07-01T11:03:28.677Z,11.06
2018-07-01T11:04:28.687Z,11.45
2018-07-01T11:05:28.700Z,11.25
2018-07-01T11:06:28.709Z,11.54
2018-07-01T11:07:28.731Z,11.36
2018-07-01T11:08:28.737Z,10.68
2018-07-01T11:09:28.748Z,10.28
2018-07-01T11:10:28.757Z,11.15
2018-07-01T11:11:28.774Z,10.58
2018-07-01T11:12:28.791Z,10.58
2018-07-01T11:13:28.796Z,10.57
2018-07-01T11:14:28.831Z,10.95
2018-07-01T11:15:28.818Z,11.93
2018-07-01T11:16:28.832Z,11.54
2018-07-01T11:17:28.841Z,11.43
2018-07-01T11:18:28.859Z,11.92
2018-07-01T11:19:28.866Z,12.02
2018-07-01T11:20:28.876Z,12.21
2018-07-01T11:21:28.888Z,12.11
2018-07-01T11:22:28.899Z,12.70
2018-07-01T11:23:28.913Z,13.26
2018-07-01T11:24:28.926Z,13.94
2018-07-01T11:25:28.937Z,13.65
2018-07-01T11:26:28.984Z,12.60
2018-07-01T11:27:29.136Z,11.43
2018-07-01T11:28:28.965Z,10.96
2018-07-01T11:29:28.979Z,11.35
2018-07-01T11:30:28.987Z,11.93
2018-07-01T11:31:28.999Z,11.44
2018-07-01T11:32:29.010Z,11.82
2018-07-01T11:33:29.025Z,12.21
2018-07-01T11:34:29.047Z,12.12
2018-07-01T11:35:29.043Z,11.83
2018-07-01T11:36:29.056Z,11.27
2018-07-01T11:37:29.065Z,10.60
2018-07-01T11:38:29.077Z,9.91
2018-07-01T11:39:29.095Z,10.48
2018-07-01T11:40:29.101Z,11.64
2018-07-01T11:41:29.113Z,11.93
2018-07-01T11:42:29.155Z,12.60
2018-07-01T11:43:29.136Z,12.52
2018-07-01T11:44:29.201Z,11.83
2018-07-01T11:45:29.161Z,11.94
2018-07-01T11:46:29.170Z,11.74
2018-07-01T11:47:29.181Z,10.96
2018-07-01T11:48:29.196Z,11.25
2018-07-01T11:49:29.205Z,11.54
2018-07-01T11:50:29.267Z,11.06
2018-07-01T11:51:29.228Z,10.68
2018-07-01T11:52:29.294Z,10.78
2018-07-01T11:53:29.250Z,10.00
2018-07-01T11:54:29.262Z,9.81
2018-07-01T11:55:29.273Z,10.19
2018-07-01T11:56:29.287Z,9.88
2018-07-01T11:57:29.298Z,10.28
2018-07-01T11:58:29.310Z,10.19
2018-07-01T11:59:29.322Z,10.19
2018-07-01T12:00:29.336Z,10.29
2018-07-01T12:01:29.345Z,10.20
2018-07-01T12:02:29.370Z,9.91
2018-07-01T12:03:29.369Z,10.58
2018-07-01T12:04:29.380Z,12.62
2018-07-01T12:05:29.477Z,12.91
2018-07-01T12:06:29.404Z,12.82
2018-07-01T12:07:29.418Z,11.94
2018-07-01T12:08:29.433Z,12.92
2018-07-01T12:09:29.439Z,13.20
2018-07-01T12:10:29.453Z,13.39
2018-07-01T12:11:29.463Z,14.07
2018-07-01T12:12:29.474Z,13.48
2018-07-01T12:13:29.485Z,13.19
2018-07-01T12:14:29.496Z,13.29
2018-07-01T12:15:29.509Z,12.71
2018-07-01T12:16:29.521Z,12.53
2018-07-01T12:17:29.563Z,11.46
2018-07-01T12:18:29.543Z,11.66
2018-07-01T12:19:29.556Z,11.47
2018-07-01T12:20:29.633Z,11.96
2018-07-01T12:21:29.575Z,11.57
2018-07-01T12:22:29.604Z,11.95
2018-07-01T12:23:29.640Z,12.54
2018-07-01T12:24:29.615Z,12.15
2018-07-01T12:25:29.622Z,11.66
2018-07-01T12:26:29.633Z,11.96
2018-07-01T12:27:29.647Z,10.69
2018-07-01T12:28:29.659Z,10.50
2018-07-01T12:29:29.669Z,11.08
2018-07-01T12:30:29.682Z,11.76
2018-07-01T12:31:29.691Z,12.23
2018-07-01T12:32:29.702Z,12.63
2018-07-01T12:33:29.727Z,12.72
2018-07-01T12:34:29.725Z,12.92
2018-07-01T12:35:29.736Z,11.94
2018-07-01T12:36:29.751Z,12.05
2018-07-01T12:37:29.763Z,11.85
2018-07-01T12:38:29.771Z,11.94
2018-07-01T12:39:29.782Z,12.73
2018-07-01T12:40:29.794Z,12.54
2018-07-01T12:41:29.807Z,12.04
2018-07-01T12:42:30.004Z,12.82
2018-07-01T12:43:29.828Z,11.93
2018-07-01T12:44:29.854Z,11.65
2018-07-01T12:45:29.855Z,11.17
2018-07-01T12:46:29.878Z,10.30
2018-07-01T12:47:29.874Z,10.01
2018-07-01T12:48:29.884Z,9.91
2018-07-01T12:49:29.896Z,10.30
2018-07-01T12:50:29.981Z,10.41
2018-07-01T12:51:29.927Z,9.92
2018-07-01T12:52:29.931Z,9.93
2018-07-01T12:53:29.950Z,10.02